createdAt,value
2022-09-24T00:00:07.526Z,85.86
2022-09-24T00:02:36.179Z,85.88
2022-09-24T00:05:05.004Z,86.19
2022-09-24T00:07:33.597Z,86.30
2022-09-24T00:10:03.873Z,86.24
2022-09-24T00:12:32.503Z,85.78
2022-09-24T00:15:01.117Z,86.25
2022-09-24T00:17:29.869Z,86.34
2022-09-24T00:19:58.485Z,86.79
2022-09-24T00:22:27.060Z,86.69
2022-09-24T00:25:12.970Z,86.73
2022-09-24T00:27:43.024Z,86.82
2022-09-24T00:30:12.925Z,86.38
2022-09-24T00:32:41.613Z,86.77
2022-09-24T00:35:11.294Z,87.10
2022-09-24T00:37:39.915Z,87.00
2022-09-24T00:40:10.925Z,87.08
2022-09-24T00:42:39.524Z,87.11
2022-09-24T00:45:11.666Z,87.05
2022-09-24T00:47:42.291Z,87.16
2022-09-24T00:50:22.181Z,87.56
2022-09-24T00:52:56.784Z,86.90
2022-09-24T00:55:26.699Z,87.11
2022-09-24T00:57:59.478Z,87.11
2022-09-24T01:00:29.655Z,86.56
2022-09-24T01:03:07.267Z,86.72
2022-09-24T01:05:37.657Z,86.90
2022-09-24T01:08:08.092Z,86.86
2022-09-24T01:10:55.417Z,86.91
2022-09-24T01:13:48.383Z,86.74
2022-09-24T01:16:34.699Z,86.71
2022-09-24T01:19:19.701Z,87.14
2022-09-24T01:21:55.355Z,86.81
2022-09-24T01:24:57.541Z,86.44
2022-09-24T01:27:53.149Z,86.59
2022-09-24T01:30:23.480Z,86.71
2022-09-24T01:32:57.599Z,86.39
2022-09-24T01:35:32.457Z,86.64
2022-09-24T01:38:08.110Z,86.54
2022-09-24T01:40:39.864Z,86.39
2022-09-24T01:43:11.498Z,86.43
2022-09-24T01:45:42.478Z,86.48
2022-09-24T01:48:11.876Z,86.17
2022-09-24T01:50:51.060Z,86.36
2022-09-24T01:53:25.990Z,86.55
2022-09-24T01:56:01.862Z,86.42
2022-09-24T01:58:38.814Z,86.17
2022-09-24T02:01:15.726Z,86.42
2022-09-24T02:03:52.694Z,86.22
2022-09-24T02:06:32.390Z,86.28
2022-09-24T02:09:01.250Z,86.39
2022-09-24T02:11:34.865Z,86.34
2022-09-24T02:14:10.703Z,86.43
2022-09-24T02:16:48.202Z,86.16
2022-09-24T02:19:22.980Z,86.26
2022-09-24T02:21:53.140Z,86.09
2022-09-24T02:24:29.219Z,85.86
2022-09-24T02:26:58.160Z,85.95
2022-09-24T02:29:27.069Z,85.79
2022-09-24T02:31:58.887Z,85.52
2022-09-24T02:34:34.606Z,85.92
2022-09-24T02:37:09.640Z,85.74
2022-09-24T02:39:38.327Z,85.72
2022-09-24T02:42:09.454Z,85.29
2022-09-24T02:44:38.599Z,85.26
2022-09-24T02:47:09.207Z,85.46
2022-09-24T02:49:37.793Z,85.58
2022-09-24T02:52:06.444Z,85.46
2022-09-24T02:54:35.045Z,85.26
2022-09-24T02:57:03.672Z,85.22
2022-09-24T02:59:32.498Z,85.65
2022-09-24T03:02:01.180Z,85.58
2022-09-24T03:04:31.924Z,85.76
2022-09-24T03:07:01.042Z,85.92
2022-09-24T03:09:30.222Z,86.08
2022-09-24T03:12:01.044Z,86.05
2022-09-24T03:14:29.666Z,85.94
2022-09-24T03:16:58.240Z,86.02
2022-09-24T03:19:26.825Z,85.81
2022-09-24T03:21:56.858Z,86.10
2022-09-24T03:24:26.763Z,86.02
2022-09-24T03:26:55.662Z,85.88
2022-09-24T03:29:44.350Z,86.17
2022-09-24T03:32:11.890Z,86.07
2022-09-24T03:34:40.551Z,85.82
2022-09-24T03:37:10.535Z,86.16
2022-09-24T03:39:39.156Z,85.86
2022-09-24T03:42:07.806Z,85.81
2022-09-24T03:44:36.452Z,85.91
2022-09-24T03:47:06.274Z,85.90
2022-09-24T03:49:34.792Z,85.75
2022-09-24T03:52:03.688Z,85.74
2022-09-24T03:54:33.676Z,85.98
2022-09-24T03:57:02.234Z,85.76
2022-09-24T03:59:30.988Z,85.59
2022-09-24T04:01:59.764Z,85.51
2022-09-24T04:04:28.365Z,85.52
2022-09-24T04:06:56.907Z,85.64
2022-09-24T04:09:25.458Z,85.50
2022-09-24T04:11:55.447Z,85.79
2022-09-24T04:14:24.161Z,85.80
2022-09-24T04:16:53.640Z,85.75
2022-09-24T04:19:22.247Z,85.23
2022-09-24T04:21:50.885Z,85.17
2022-09-24T04:24:19.921Z,85.74
2022-09-24T04:26:48.478Z,85.21
2022-09-24T04:29:18.699Z,85.23
2022-09-24T04:31:47.911Z,85.48
2022-09-24T04:34:17.544Z,84.93
2022-09-24T04:36:46.291Z,84.82
2022-09-24T04:39:15.681Z,84.82
2022-09-24T04:41:44.499Z,84.96
2022-09-24T04:44:13.485Z,84.77
2022-09-24T04:46:43.572Z,84.92
2022-09-24T04:49:13.017Z,85.16
2022-09-24T04:51:41.824Z,85.29
2022-09-24T04:54:11.172Z,85.58
2022-09-24T04:56:39.788Z,85.37
2022-09-24T04:59:08.395Z,85.32
2022-09-24T05:01:37.259Z,84.99
2022-09-24T05:04:07.858Z,85.02
2022-09-24T05:06:37.167Z,85.37
2022-09-24T05:09:09.029Z,85.09
2022-09-24T05:11:41.446Z,84.96
2022-09-24T05:14:10.397Z,84.77
2022-09-24T05:16:39.586Z,84.71
2022-09-24T05:19:09.901Z,84.99
2022-09-24T05:21:38.481Z,85.13
2022-09-24T05:24:07.713Z,84.80
2022-09-24T05:26:53.528Z,85.01
2022-09-24T05:29:22.280Z,85.00
2022-09-24T05:31:51.000Z,85.53
2022-09-24T05:34:21.379Z,85.00
2022-09-24T05:36:50.121Z,85.11
2022-09-24T05:39:18.792Z,85.26
2022-09-24T05:41:47.312Z,85.74
2022-09-24T05:44:19.296Z,85.63
2022-09-24T05:46:48.210Z,85.48
2022-09-24T05:49:18.552Z,85.81
2022-09-24T05:51:50.583Z,85.61
2022-09-24T05:54:20.594Z,86.17
2022-09-24T05:56:51.195Z,86.41
2022-09-24T05:59:20.076Z,86.06
2022-09-24T06:01:49.582Z,86.81
2022-09-24T06:04:18.509Z,86.63
2022-09-24T06:06:50.346Z,86.74
2022-09-24T06:09:20.602Z,86.77
2022-09-24T06:11:53.245Z,86.62
2022-09-24T06:14:22.064Z,86.62
2022-09-24T06:16:51.032Z,86.57
2022-09-24T06:19:19.685Z,86.85
2022-09-24T06:21:49.585Z,86.88
2022-09-24T06:24:18.277Z,86.89
2022-09-24T06:26:47.103Z,86.74
2022-09-24T06:29:16.164Z,87.11
2022-09-24T06:31:45.842Z,87.00
2022-09-24T06:34:15.659Z,86.44
2022-09-24T06:36:44.358Z,86.47
2022-09-24T06:39:14.401Z,86.56
2022-09-24T06:41:42.969Z,86.67
2022-09-24T06:44:15.177Z,86.67
2022-09-24T06:46:45.488Z,86.59
2022-09-24T06:49:14.242Z,86.55
2022-09-24T06:51:42.974Z,86.90
2022-09-24T06:54:12.962Z,86.93
2022-09-24T06:56:41.565Z,87.18
2022-09-24T06:59:11.004Z,87.13
2022-09-24T07:01:39.893Z,87.04
2022-09-24T07:04:08.547Z,87.29
2022-09-24T07:06:50.979Z,87.24
2022-09-24T07:09:23.015Z,87.52
2022-09-24T07:11:53.059Z,87.46
2022-09-24T07:14:23.160Z,87.42
2022-09-24T07:16:52.247Z,86.87
2022-09-24T07:19:22.106Z,87.36
2022-09-24T07:22:16.950Z,87.54
2022-09-24T07:24:47.326Z,87.86
2022-09-24T07:31:45.526Z,87.86
2022-09-24T07:34:15.337Z,87.68
2022-09-24T07:36:57.774Z,87.83
2022-09-24T07:39:28.324Z,87.80
2022-09-24T07:42:02.222Z,87.65
2022-09-24T07:44:33.698Z,87.36
2022-09-24T07:47:02.866Z,87.25
2022-09-24T07:49:33.322Z,87.23
2022-09-24T07:52:02.584Z,87.48
2022-09-24T07:54:32.019Z,87.45
2022-09-24T07:57:05.034Z,86.98
2022-09-24T07:59:33.835Z,87.01
2022-09-24T08:02:19.953Z,86.99
2022-09-24T08:04:50.575Z,87.14
2022-09-24T08:07:29.221Z,87.67
2022-09-24T08:09:58.968Z,87.50
2022-09-24T08:12:29.854Z,86.98
2022-09-24T08:14:58.996Z,86.91
2022-09-24T08:17:28.423Z,87.09
2022-09-24T08:19:59.688Z,86.28
2022-09-24T08:22:29.006Z,86.03
2022-09-24T08:24:58.862Z,85.25
2022-09-24T08:27:30.075Z,84.70
2022-09-24T08:30:00.697Z,84.50
2022-09-24T08:32:30.436Z,82.69
2022-09-24T08:35:01.276Z,81.15
2022-09-24T08:37:30.644Z,80.22
2022-09-24T08:39:59.374Z,79.95
2022-09-24T08:42:46.368Z,79.97
2022-09-24T08:45:32.454Z,77.17
2022-09-24T08:48:09.759Z,75.08
2022-09-24T08:50:49.228Z,72.28
2022-09-24T08:53:28.600Z,70.71
2022-09-24T08:56:01.745Z,69.28
2022-09-24T08:58:46.369Z,68.32
2022-09-24T09:01:27.678Z,69.69
2022-09-24T09:04:05.222Z,63.40
2022-09-24T09:06:59.326Z,63.00
2022-09-24T09:09:42.510Z,62.42
2022-09-24T09:12:19.148Z,65.75
2022-09-24T09:14:57.045Z,63.92
2022-09-24T09:17:45.378Z,61.26
2022-09-24T09:20:20.307Z,60.30
2022-09-24T09:22:53.476Z,60.75
2022-09-24T09:25:25.599Z,59.77
2022-09-24T09:28:02.004Z,62.07
2022-09-24T09:30:43.737Z,64.27
2022-09-24T09:33:43.181Z,65.18
2022-09-24T09:36:38.045Z,66.33
2022-09-24T09:39:23.735Z,60.36
2022-09-24T09:42:02.546Z,61.27
2022-09-24T09:44:42.658Z,62.78
2022-09-24T09:47:36.152Z,60.58
2022-09-24T09:50:12.447Z,58.04
2022-09-24T09:52:41.726Z,59.79
2022-09-24T09:55:23.905Z,59.67
2022-09-24T09:57:53.566Z,57.90
2022-09-24T10:00:41.490Z,56.85
2022-09-24T10:03:29.987Z,55.68
2022-09-24T10:06:02.545Z,53.34
2022-09-24T10:08:31.570Z,55.98
2022-09-24T10:11:04.740Z,54.37
2022-09-24T10:13:33.330Z,54.91
2022-09-24T10:16:06.488Z,52.70
2022-09-24T10:18:43.129Z,53.05
2022-09-24T10:21:28.443Z,50.75
2022-09-24T10:24:03.185Z,49.75
2022-09-24T10:26:44.703Z,48.73
2022-09-24T10:29:37.565Z,50.83
2022-09-24T10:32:08.040Z,53.69
2022-09-24T10:34:38.264Z,53.42
2022-09-24T10:37:16.661Z,55.11
2022-09-24T10:40:00.011Z,46.88
2022-09-24T10:42:31.812Z,46.62
2022-09-24T10:45:03.636Z,49.69
2022-09-24T10:47:47.861Z,49.03
2022-09-24T10:50:43.238Z,48.66
2022-09-24T10:53:19.416Z,46.40
2022-09-24T10:56:03.930Z,44.37
2022-09-24T10:59:13.884Z,44.33
2022-09-24T11:01:56.695Z,45.06
2022-09-24T11:04:51.754Z,42.46
2022-09-24T11:07:40.687Z,43.99
2022-09-24T11:10:30.405Z,42.31
2022-09-24T11:13:15.572Z,43.90
2022-09-24T11:16:23.472Z,43.29
2022-09-24T11:19:02.613Z,43.38
2022-09-24T11:21:53.644Z,45.19
2022-09-24T11:24:45.881Z,43.49
2022-09-24T11:27:49.453Z,44.28
2022-09-24T11:30:22.346Z,46.12
2022-09-24T11:33:14.675Z,46.36
2022-09-24T11:36:17.317Z,45.85
2022-09-24T11:39:07.314Z,50.49
2022-09-24T11:41:51.115Z,48.90
2022-09-24T11:45:11.207Z,53.87
2022-09-24T11:48:08.094Z,53.33
2022-09-24T11:50:49.067Z,50.63
2022-09-24T11:53:37.500Z,51.15
2022-09-24T11:56:15.254Z,54.30
2022-09-24T11:58:51.655Z,54.90
2022-09-24T12:01:26.413Z,55.26
2022-09-24T12:04:03.629Z,56.03
2022-09-24T12:06:38.300Z,57.16
2022-09-24T12:09:23.189Z,54.89
2022-09-24T12:12:02.492Z,55.33
2022-09-24T12:14:45.101Z,54.83
2022-09-24T12:17:25.295Z,54.48
2022-09-24T12:20:01.382Z,52.33
2022-09-24T12:22:37.767Z,55.13
2022-09-24T12:25:12.546Z,55.60
2022-09-24T12:27:41.768Z,55.27
2022-09-24T12:30:49.656Z,56.67
2022-09-24T12:33:31.519Z,55.97
2022-09-24T12:36:09.833Z,56.92
2022-09-24T12:38:46.939Z,57.25
2022-09-24T12:41:33.357Z,57.82
2022-09-24T12:44:18.340Z,58.65
2022-09-24T12:46:55.942Z,58.05
2022-09-24T12:49:34.946Z,59.66
2022-09-24T12:52:17.490Z,58.04
2022-09-24T12:54:47.320Z,57.86
2022-09-24T12:57:25.514Z,57.16
2022-09-24T12:59:58.245Z,57.60
2022-09-24T13:02:33.275Z,57.94
2022-09-24T13:05:20.231Z,56.31
2022-09-24T13:08:00.293Z,57.81
2022-09-24T13:10:32.620Z,53.71
2022-09-24T13:13:02.833Z,54.26
2022-09-24T13:15:38.658Z,56.03
2022-09-24T13:18:24.342Z,55.50
2022-09-24T13:21:06.735Z,51.08
2022-09-24T13:23:47.678Z,53.27
2022-09-24T13:26:34.999Z,52.43
2022-09-24T13:29:06.403Z,57.27
2022-09-24T13:31:47.855Z,54.47
2022-09-24T13:34:24.280Z,54.70
2022-09-24T13:37:03.335Z,48.99
2022-09-24T13:39:42.247Z,52.92
2022-09-24T13:42:21.911Z,53.49
2022-09-24T13:44:57.013Z,56.80
2022-09-24T13:47:36.338Z,58.87
2022-09-24T13:50:17.798Z,58.67
2022-09-24T13:52:53.941Z,56.43
2022-09-24T13:55:32.241Z,60.09
2022-09-24T13:58:01.324Z,60.95
2022-09-24T14:00:32.411Z,61.59
2022-09-24T14:03:06.598Z,61.87
2022-09-24T14:05:38.608Z,62.46
2022-09-24T14:08:13.082Z,63.71
2022-09-24T14:10:42.380Z,64.97
2022-09-24T14:13:21.823Z,63.59
2022-09-24T14:15:57.151Z,64.27
2022-09-24T14:18:28.576Z,65.76
2022-09-24T14:21:06.366Z,65.19
2022-09-24T14:23:42.826Z,66.81
2022-09-24T14:26:24.771Z,64.72
2022-09-24T14:28:54.850Z,65.02
2022-09-24T14:31:23.857Z,65.60
2022-09-24T14:33:53.361Z,65.79
2022-09-24T14:36:29.162Z,66.12
2022-09-24T14:39:04.213Z,65.10
2022-09-24T14:41:37.409Z,66.09
2022-09-24T14:44:16.981Z,63.96
2022-09-24T14:46:50.430Z,63.73
2022-09-24T14:49:24.548Z,65.15
2022-09-24T14:51:57.648Z,64.60
2022-09-24T14:54:34.177Z,64.24
2022-09-24T14:57:24.097Z,64.48
2022-09-24T14:59:53.335Z,64.54
2022-09-24T15:02:30.874Z,65.11
2022-09-24T15:05:06.552Z,65.33
2022-09-24T15:07:37.688Z,67.16
2022-09-24T15:10:07.877Z,67.87
2022-09-24T15:12:39.384Z,68.19
2022-09-24T15:15:30.692Z,68.49
2022-09-24T15:18:00.067Z,68.01
2022-09-24T15:20:28.724Z,68.29
2022-09-24T15:22:58.750Z,69.50
2022-09-24T15:25:27.405Z,69.94
2022-09-24T15:27:56.511Z,70.73
2022-09-24T15:30:25.133Z,71.21
2022-09-24T15:32:53.771Z,71.67
2022-09-24T15:35:22.398Z,72.26
2022-09-24T15:37:51.189Z,72.00
2022-09-24T15:40:25.590Z,72.76
2022-09-24T15:42:54.377Z,73.15
2022-09-24T15:45:25.523Z,72.87
2022-09-24T15:47:54.990Z,72.95
2022-09-24T15:50:26.082Z,73.47
2022-09-24T15:53:00.195Z,73.80
2022-09-24T15:55:31.459Z,73.26
2022-09-24T15:58:02.046Z,73.40
2022-09-24T16:00:30.829Z,73.50
2022-09-24T16:03:00.227Z,74.08
2022-09-24T16:05:29.035Z,73.66
2022-09-24T16:07:57.991Z,74.04
2022-09-24T16:10:26.579Z,73.84
2022-09-24T16:12:56.586Z,74.36
2022-09-24T16:15:25.269Z,74.90
2022-09-24T16:17:53.966Z,74.92
2022-09-24T16:20:22.730Z,75.17
2022-09-24T16:22:51.729Z,75.22
2022-09-24T16:25:20.782Z,75.59
2022-09-24T16:27:49.796Z,76.05
2022-09-24T16:30:20.108Z,75.77
2022-09-24T16:35:47.940Z,76.33
2022-09-24T16:37:27.513Z,76.13
2022-09-24T16:39:56.164Z,76.51
2022-09-24T16:42:26.409Z,76.64
2022-09-24T16:44:55.005Z,77.17
2022-09-24T16:47:25.111Z,77.54
2022-09-24T16:49:53.645Z,78.15
2022-09-24T16:52:22.306Z,78.83
2022-09-24T16:54:50.929Z,78.78
2022-09-24T16:57:19.602Z,78.92
2022-09-24T16:59:48.210Z,78.74
2022-09-24T17:02:18.345Z,78.60
2022-09-24T17:04:48.433Z,78.93
2022-09-24T17:07:17.018Z,78.54
2022-09-24T17:10:03.412Z,78.62
2022-09-24T17:12:32.037Z,78.26
2022-09-24T17:15:02.141Z,78.87
2022-09-24T17:17:31.180Z,79.14
2022-09-24T17:20:01.599Z,79.17
2022-09-24T17:22:31.635Z,79.29
2022-09-24T17:25:00.352Z,79.46
2022-09-24T17:27:30.185Z,79.76
2022-09-24T17:29:58.847Z,80.27
2022-09-24T17:32:27.648Z,80.10
2022-09-24T17:34:56.600Z,80.13
2022-09-24T17:37:27.417Z,79.72
2022-09-24T17:39:56.351Z,80.16
2022-09-24T17:42:25.124Z,80.04
2022-09-24T17:44:53.855Z,80.14
2022-09-24T17:47:22.445Z,80.33
2022-09-24T17:49:51.284Z,80.47
2022-09-24T17:52:21.141Z,81.00
2022-09-24T17:54:51.310Z,81.03
2022-09-24T17:57:20.021Z,81.07
2022-09-24T17:59:48.809Z,80.76
2022-09-24T18:02:17.564Z,80.96
2022-09-24T18:04:46.389Z,81.21
2022-09-24T18:07:16.945Z,80.88
2022-09-24T18:09:45.934Z,81.16
2022-09-24T18:12:17.519Z,81.56
2022-09-24T18:14:46.151Z,80.83
2022-09-24T18:17:15.265Z,80.76
2022-09-24T18:19:43.938Z,79.98
2022-09-24T18:22:13.753Z,80.32
2022-09-24T18:24:44.737Z,80.41
2022-09-24T18:27:15.430Z,81.15
2022-09-24T18:29:46.563Z,81.38
2022-09-24T18:32:16.074Z,81.39
2022-09-24T18:34:44.747Z,80.93
2022-09-24T18:37:13.783Z,80.89
2022-09-24T18:39:42.387Z,80.40
2022-09-24T18:42:12.258Z,80.76
2022-09-24T18:44:40.946Z,80.93
2022-09-24T18:47:14.724Z,81.42
2022-09-24T18:49:43.456Z,81.15
2022-09-24T18:52:12.188Z,80.71
2022-09-24T18:54:41.121Z,80.17
2022-09-24T18:57:09.958Z,79.91
2022-09-24T18:59:45.011Z,79.67
2022-09-24T19:02:16.330Z,80.46
2022-09-24T19:04:46.301Z,80.39
2022-09-24T19:07:16.078Z,79.92
2022-09-24T19:09:46.594Z,80.29
2022-09-24T19:12:15.509Z,80.83
2022-09-24T19:14:45.004Z,80.36
2022-09-24T19:20:18.469Z,80.54
2022-09-24T19:23:13.029Z,79.85
2022-09-24T19:25:44.108Z,80.27
2022-09-24T19:28:17.363Z,80.47
2022-09-24T19:30:58.810Z,80.78
2022-09-24T19:33:30.435Z,81.00
2022-09-24T19:36:10.532Z,81.07
2022-09-24T19:38:43.808Z,80.70
2022-09-24T19:41:29.975Z,80.02
2022-09-24T19:44:12.230Z,80.77
2022-09-24T19:46:42.701Z,80.92
2022-09-24T19:49:16.673Z,81.08
2022-09-24T19:51:46.121Z,81.59
2022-09-24T19:54:16.492Z,81.34
2022-09-24T19:56:45.383Z,81.35
2022-09-24T19:59:14.666Z,81.30
2022-09-24T20:01:55.577Z,81.19
2022-09-24T20:04:28.990Z,81.35
2022-09-24T20:07:00.137Z,81.47
2022-09-24T20:09:35.162Z,81.81
2022-09-24T20:15:23.262Z,82.09
2022-09-24T20:17:52.121Z,82.07
2022-09-24T20:20:24.075Z,81.25
2022-09-24T20:22:52.785Z,80.83
2022-09-24T20:25:42.020Z,81.28
2022-09-24T20:28:14.314Z,81.89
2022-09-24T20:30:45.102Z,81.71
2022-09-24T20:33:14.509Z,81.86
2022-09-24T20:35:44.121Z,81.57
2022-09-24T20:38:12.756Z,81.54
2022-09-24T20:40:42.762Z,81.37
2022-09-24T20:43:11.519Z,81.20
2022-09-24T20:45:43.617Z,81.39
2022-09-24T20:48:12.628Z,81.45
2022-09-24T20:50:41.321Z,81.91
2022-09-24T20:53:10.014Z,81.69
2022-09-24T20:55:40.460Z,82.03
2022-09-24T20:58:10.311Z,81.97
2022-09-24T21:00:48.602Z,82.15
2022-09-24T21:03:42.065Z,82.19
2022-09-24T21:06:10.669Z,82.04
2022-09-24T21:08:42.308Z,82.14
2022-09-24T21:11:14.247Z,82.12
2022-09-24T21:13:45.390Z,82.08
2022-09-24T21:16:14.881Z,82.23
2022-09-24T21:18:45.186Z,82.20
2022-09-24T21:21:16.975Z,82.41
2022-09-24T21:23:51.507Z,82.81
2022-09-24T21:26:22.647Z,82.32
2022-09-24T21:28:53.810Z,82.21
2022-09-24T21:31:28.814Z,82.31
2022-09-24T21:34:00.483Z,82.20
2022-09-24T21:36:32.137Z,81.94
2022-09-24T21:39:02.735Z,82.55
2022-09-24T21:41:34.670Z,82.08
2022-09-24T21:44:04.162Z,82.40
2022-09-24T21:46:34.265Z,82.60
2022-09-24T21:49:04.440Z,82.74
2022-09-24T21:51:33.025Z,83.01
2022-09-24T21:54:04.068Z,83.30
2022-09-24T21:56:35.397Z,83.05
2022-09-24T21:59:26.479Z,83.48
2022-09-24T22:01:56.171Z,83.01
2022-09-24T22:04:27.268Z,82.73
2022-09-24T22:06:55.862Z,82.30
2022-09-24T22:09:24.875Z,82.42
2022-09-24T22:11:53.614Z,82.78
2022-09-24T22:14:22.401Z,82.67
2022-09-24T22:16:51.116Z,83.02
2022-09-24T22:19:20.402Z,83.30
2022-09-24T22:21:52.427Z,83.28
2022-09-24T22:24:21.112Z,83.37
2022-09-24T22:26:49.732Z,83.10
2022-09-24T22:29:18.483Z,82.62
2022-09-24T22:31:47.145Z,82.99
2022-09-24T22:34:32.761Z,83.24
2022-09-24T22:37:07.561Z,83.10
2022-09-24T22:39:36.675Z,82.93
2022-09-24T22:42:06.000Z,82.61
2022-09-24T22:44:34.674Z,82.93
2022-09-24T22:47:03.416Z,82.73
2022-09-24T22:49:32.773Z,82.48
2022-09-24T22:52:03.457Z,82.19
2022-09-24T22:54:32.146Z,82.11
2022-09-24T22:57:00.765Z,82.30
2022-09-24T22:59:30.514Z,82.22
2022-09-24T23:01:59.182Z,82.17
2022-09-24T23:04:27.914Z,82.33
2022-09-24T23:06:56.534Z,82.30
2022-09-24T23:09:27.103Z,82.36
2022-09-24T23:11:56.648Z,82.45
2022-09-24T23:14:25.445Z,82.49
2022-09-24T23:16:54.542Z,82.92
2022-09-24T23:19:23.179Z,82.82
2022-09-24T23:21:51.776Z,82.54
2022-09-24T23:24:22.098Z,82.11
2022-09-24T23:26:52.240Z,82.16
2022-09-24T23:29:20.944Z,82.29
2022-09-24T23:31:50.279Z,82.35
2022-09-24T23:34:20.402Z,82.69
2022-09-24T23:36:49.142Z,82.93
2022-09-24T23:39:17.832Z,82.91
2022-09-24T23:41:46.513Z,82.87
2022-09-24T23:44:16.689Z,83.02
2022-09-24T23:46:45.456Z,82.58
2022-09-24T23:49:14.822Z,82.37
2022-09-24T23:51:44.138Z,81.76
2022-09-24T23:54:12.738Z,81.52
2022-09-24T23:56:41.398Z,81.94
2022-09-24T23:59:10.360Z,82.23
